Time;durP1;ratioP1;P1;durP2;ratioP2;P2;SDS_P1;SDS_P2;PMS_P1;PMS_P2;Temp;Humidity;BMP_temperature;BMP_pressure;BME280_temperature;BME280_humidity;BME280_pressure;Samples;Min_cycle;Max_cycle;Signal;HPM_P1;HPM_P2
2021/08/03 03:32:28;;;;;;;3.07;1.40;;;13.80;99.70;;;;;;5031498;28;20220;-65
2021/08/03 03:34:55;;;;;;;2.97;1.80;;;13.70;99.70;;;;;;5032309;28;20731;-65
2021/08/03 03:37:26;;;;;;;3.23;1.70;;;13.80;99.70;;;;;;5033131;28;20955;-65
2021/08/03 03:39:56;;;;;;;2.40;1.87;;;13.70;99.70;;;;;;5033048;28;20476;-64
2021/08/03 03:42:26;;;;;;;2.77;1.97;;;13.70;99.70;;;;;;5032871;28;20471;-65
2021/08/03 03:44:53;;;;;;;3.20;1.60;;;13.70;99.70;;;;;;5032477;28;20445;-65
2021/08/03 03:47:25;;;;;;;2.60;1.40;;;13.80;99.70;;;;;;5033064;28;20451;-65
2021/08/03 03:49:59;;;;;;;4.13;1.60;;;13.80;99.70;;;;;;5032828;28;20444;-65
2021/08/03 03:52:27;;;;;;;2.87;1.80;;;13.80;99.70;;;;;;5032735;28;20476;-65
2021/08/03 03:54:55;;;;;;;2.63;1.53;;;13.80;99.70;;;;;;5032163;28;20499;-65
2021/08/03 03:57:22;;;;;;;3.33;1.90;;;13.80;99.70;;;;;;5032704;28;20452;-65
2021/08/03 03:59:51;;;;;;;3.73;1.90;;;13.80;99.70;;;;;;5032546;28;20498;-65
2021/08/03 04:02:21;;;;;;;4.87;2.40;;;13.80;99.70;;;;;;5032451;28;20472;-65
2021/08/03 04:04:49;;;;;;;5.07;2.00;;;13.70;99.70;;;;;;5032114;28;20544;-65
2021/08/03 04:07:17;;;;;;;3.13;1.87;;;13.70;99.70;;;;;;5032582;28;20445;-65
2021/08/03 04:09:44;;;;;;;5.00;2.30;;;13.70;99.70;;;;;;5032466;28;20950;-65
2021/08/03 04:12:12;;;;;;;2.80;1.73;;;13.70;99.70;;;;;;5032297;28;20461;-65
2021/08/03 04:14:41;;;;;;;4.63;2.10;;;13.70;99.70;;;;;;5031634;28;20454;-65
2021/08/03 04:17:09;;;;;;;3.33;1.90;;;13.70;99.70;;;;;;5032426;28;20440;-66
2021/08/03 04:19:36;;;;;;;5.83;2.00;;;13.70;99.70;;;;;;5032328;28;20551;-65
2021/08/03 04:22:03;;;;;;;3.50;1.97;;;13.70;99.70;;;;;;5032032;28;20483;-65
2021/08/03 04:24:31;;;;;;;5.10;2.00;;;13.80;99.70;;;;;;5031699;28;20441;-65
2021/08/03 04:26:57;;;;;;;2.83;1.63;;;13.70;99.70;;;;;;5032042;28;20445;-66
2021/08/03 04:29:24;;;;;;;2.50;1.67;;;13.90;99.70;;;;;;5032129;28;20444;-65
2021/08/03 04:31:51;;;;;;;3.20;1.83;;;13.90;99.70;;;;;;5031761;28;20828;-65
2021/08/03 04:34:17;;;;;;;3.23;1.70;;;13.70;99.70;;;;;;5031088;28;20484;-65
2021/08/03 04:36:44;;;;;;;4.00;1.90;;;13.70;99.70;;;;;;5031975;28;20449;-65
2021/08/03 04:39:11;;;;;;;4.20;2.03;;;13.80;99.70;;;;;;5032040;28;20444;-65
2021/08/03 04:41:40;;;;;;;2.37;1.57;;;13.70;99.70;;;;;;5031707;28;20508;-65
2021/08/03 04:44:07;;;;;;;2.87;1.73;;;13.70;99.70;;;;;;5030686;28;20518;-65
2021/08/03 04:46:34;;;;;;;3.30;1.70;;;13.70;99.70;;;;;;5031785;28;20659;-65
2021/08/03 04:49:01;;;;;;;3.10;1.70;;;13.70;99.70;;;;;;5031970;28;20445;-65
2021/08/03 04:51:28;;;;;;;5.90;1.70;;;13.70;99.70;;;;;;5031424;28;20999;-65
2021/08/03 04:53:55;;;;;;;4.50;1.73;;;13.70;99.70;;;;;;5031447;28;20488;-65
2021/08/03 04:56:21;;;;;;;5.10;1.80;;;13.70;99.70;;;;;;5031231;28;20445;-65
2021/08/03 04:58:49;;;;;;;3.10;1.70;;;13.70;99.70;;;;;;5031670;28;20452;-66
2021/08/03 05:01:16;;;;;;;2.90;2.00;;;13.80;99.70;;;;;;5031388;28;20464;-65
2021/08/03 05:03:42;;;;;;;3.73;1.80;;;13.80;99.70;;;;;;5031427;28;20498;-65
2021/08/03 05:06:09;;;;;;;2.47;1.70;;;13.80;99.70;;;;;;5031070;28;20449;-65
2021/08/03 05:08:36;;;;;;;4.80;1.87;;;13.90;99.70;;;;;;5031280;28;20440;-65
2021/08/03 05:11:02;;;;;;;2.20;1.53;;;13.90;99.70;;;;;;5031006;28;20979;-66
2021/08/03 05:13:29;;;;;;;3.07;1.83;;;13.90;99.70;;;;;;5031026;28;20487;-65
2021/08/03 05:15:57;;;;;;;3.40;1.93;;;14.10;99.70;;;;;;5030507;28;20448;-66
2021/08/03 05:18:24;;;;;;;3.37;1.97;;;14.10;99.70;;;;;;5031279;28;20452;-65
2021/08/03 05:20:51;;;;;;;3.67;1.80;;;14.00;99.70;;;;;;5030849;28;20473;-65
2021/08/03 05:23:17;;;;;;;3.10;1.67;;;14.00;99.70;;;;;;5030984;28;20444;-67
2021/08/03 05:25:44;;;;;;;2.67;1.50;;;14.20;99.70;;;;;;5030810;28;20449;-64
2021/08/03 05:28:11;;;;;;;3.77;1.70;;;14.10;99.70;;;;;;5030800;28;20451;-66
2021/08/03 05:30:37;;;;;;;2.80;1.67;;;14.10;99.70;;;;;;5030976;28;20469;-65
2021/08/03 05:33:05;;;;;;;3.77;1.67;;;14.30;99.70;;;;;;5030483;28;20506;-65
2021/08/03 05:35:32;;;;;;;3.77;1.73;;;14.20;99.70;;;;;;5030241;28;20452;-65
2021/08/03 05:37:59;;;;;;;3.10;1.83;;;14.20;99.70;;;;;;5030785;28;20671;-65
2021/08/03 05:40:26;;;;;;;2.20;1.60;;;14.20;99.70;;;;;;5030921;28;20979;-65
2021/08/03 05:42:52;;;;;;;3.77;1.90;;;14.10;99.70;;;;;;5030452;28;20481;-65
2021/08/03 05:45:19;;;;;;;2.20;1.77;;;14.20;99.70;;;;;;5030543;28;20625;-65
2021/08/03 05:47:46;;;;;;;3.47;2.10;;;14.20;99.70;;;;;;5030624;28;20966;-65
2021/08/03 05:50:14;;;;;;;3.23;1.80;;;14.20;99.70;;;;;;5030486;28;20448;-66
2021/08/03 05:52:40;;;;;;;3.80;2.13;;;14.20;99.70;;;;;;5030368;28;20829;-65
2021/08/03 05:55:08;;;;;;;3.50;1.77;;;14.50;99.70;;;;;;5030088;28;20452;-66
2021/08/03 05:57:35;;;;;;;3.83;2.30;;;14.50;99.70;;;;;;5030268;28;20444;-64
2021/08/03 06:00:01;;;;;;;3.83;1.90;;;14.40;99.70;;;;;;5030575;28;20826;-64
2021/08/03 06:02:28;;;;;;;3.17;1.93;;;14.30;99.70;;;;;;5029891;28;20514;-65
2021/08/03 06:04:55;;;;;;;4.17;1.63;;;14.40;99.70;;;;;;5030019;28;21033;-65
2021/08/03 06:07:25;;;;;;;4.00;1.90;;;14.40;99.70;;;;;;5030259;28;21001;-65
2021/08/03 06:09:56;;;;;;;4.00;1.93;;;14.40;99.70;;;;;;5030245;28;20506;-65
2021/08/03 06:12:25;;;;;;;7.20;2.40;;;14.40;99.70;;;;;;5030291;28;20464;-66
2021/08/03 06:14:55;;;;;;;3.27;1.80;;;14.50;99.70;;;;;;5029388;28;20483;-65
2021/08/03 06:17:33;;;;;;;2.50;1.67;;;14.50;99.70;;;;;;5030435;28;20774;-65
2021/08/03 06:20:00;;;;;;;5.20;1.93;;;14.60;99.70;;;;;;5030183;28;20463;-65
2021/08/03 06:22:29;;;;;;;2.60;1.70;;;14.70;99.70;;;;;;5030015;28;20456;-65
2021/08/03 06:24:56;;;;;;;2.70;1.83;;;15.00;99.70;;;;;;5029601;28;20878;-66
2021/08/03 06:27:22;;;;;;;2.53;1.70;;;15.40;99.70;;;;;;5029994;28;20448;-66
2021/08/03 06:29:50;;;;;;;3.87;1.83;;;15.50;99.70;;;;;;5029990;28;20440;-66
2021/08/03 06:32:17;;;;;;;3.20;1.80;;;15.50;99.70;;;;;;5029994;28;20472;-65
2021/08/03 06:34:45;;;;;;;2.80;1.97;;;15.40;99.70;;;;;;5023834;28;20555;-67
2021/08/03 06:37:13;;;;;;;2.80;1.43;;;15.40;99.70;;;;;;5027846;28;20452;-65
2021/08/03 06:39:42;;;;;;;2.90;2.07;;;15.60;99.70;;;;;;5029422;28;20448;-66
2021/08/03 06:42:16;;;;;;;3.87;2.37;;;15.50;99.70;;;;;;5015680;28;20485;-65
2021/08/03 06:44:45;;;;;;;3.43;2.10;;;16.10;99.70;;;;;;5010160;28;20438;-66
2021/08/03 06:47:14;;;;;;;4.00;2.33;;;16.80;99.70;;;;;;5021292;28;20448;-66
2021/08/03 06:49:44;;;;;;;2.20;1.50;;;17.30;99.70;;;;;;5010147;28;20461;-66
2021/08/03 06:52:13;;;;;;;3.00;1.80;;;17.70;99.70;;;;;;5022441;28;20464;-67
2021/08/03 06:54:48;;;;;;;2.37;1.60;;;17.80;99.70;;;;;;5029245;28;20581;-66
2021/08/03 06:57:17;;;;;;;3.57;1.90;;;18.10;99.70;;;;;;5029917;28;20506;-66
2021/08/03 06:59:49;;;;;;;14.23;2.33;;;18.40;99.70;;;;;;5029655;28;20530;-66
2021/08/03 07:02:23;;;;;;;3.20;1.80;;;18.30;99.70;;;;;;5029656;28;20468;-66
2021/08/03 07:04:57;;;;;;;2.50;1.60;;;18.90;99.70;;;;;;5014733;28;20462;-66
2021/08/03 07:07:24;;;;;;;2.83;1.67;;;18.80;99.70;;;;;;5030936;28;20816;-66
2021/08/03 07:09:53;;;;;;;3.13;1.90;;;18.40;99.70;;;;;;5033216;28;20873;-66
2021/08/03 07:12:21;;;;;;;2.20;1.50;;;18.20;99.70;;;;;;5033818;28;20715;-66
2021/08/03 07:14:49;;;;;;;2.60;1.87;;;17.80;99.70;;;;;;5030760;28;20487;-65
2021/08/03 07:17:17;;;;;;;13.93;2.10;;;17.70;99.70;;;;;;5033292;28;20448;-66
2021/08/03 07:19:44;;;;;;;3.23;1.70;;;17.30;99.70;;;;;;5033169;28;20433;-65
2021/08/03 07:22:14;;;;;;;3.00;1.73;;;17.20;99.70;;;;;;5033015;28;20472;-66
2021/08/03 07:24:43;;;;;;;2.20;1.70;;;17.40;99.70;;;;;;5026605;28;20442;-66
2021/08/03 07:27:11;;;;;;;3.13;1.80;;;17.90;99.70;;;;;;5021035;28;20444;-66
2021/08/03 07:29:37;;;;;;;2.30;1.77;;;18.90;99.70;;;;;;5032849;28;20444;-66
2021/08/03 07:32:04;;;;;;;2.00;1.50;;;19.10;99.70;;;;;;5032950;28;20825;-67
2021/08/03 07:34:31;;;;;;;2.70;1.60;;;18.80;99.70;;;;;;5032094;28;21022;-65
2021/08/03 07:37:00;;;;;;;2.20;1.60;;;18.70;99.70;;;;;;5032484;28;20440;-66
2021/08/03 07:39:27;;;;;;;2.50;1.60;;;18.70;99.70;;;;;;5031954;28;20452;-65
2021/08/03 07:41:55;;;;;;;3.03;1.60;;;18.50;99.70;;;;;;5032139;28;20464;-67
2021/08/03 07:44:23;;;;;;;4.07;1.60;;;18.50;99.70;;;;;;5032465;28;20737;-66
2021/08/03 07:46:50;;;;;;;2.97;1.67;;;18.40;99.70;;;;;;5032682;28;20455;-66
2021/08/03 07:49:18;;;;;;;3.00;2.00;;;18.40;99.70;;;;;;5032745;28;20449;-65
2021/08/03 07:51:46;;;;;;;1.70;1.40;;;18.20;99.70;;;;;;5032389;28;20464;-65
2021/08/03 07:54:13;;;;;;;1.90;1.53;;;18.30;99.70;;;;;;5030920;28;20883;-65
2021/08/03 07:56:40;;;;;;;3.23;1.70;;;18.10;99.70;;;;;;5032272;28;20858;-66
2021/08/03 07:59:06;;;;;;;2.27;1.40;;;18.10;99.70;;;;;;5032441;28;20444;-66
2021/08/03 08:01:35;;;;;;;3.50;1.90;;;18.10;99.70;;;;;;5032659;28;20469;-65
2021/08/03 08:04:02;;;;;;;2.20;1.37;;;18.10;99.70;;;;;;5032024;28;20870;-66
2021/08/03 08:06:29;;;;;;;4.23;1.70;;;18.30;99.70;;;;;;5015349;28;20454;-66
2021/08/03 08:08:55;;;;;;;2.40;1.53;;;18.40;99.70;;;;;;5012464;28;20806;-65
2021/08/03 08:11:22;;;;;;;2.17;1.40;;;18.50;99.70;;;;;;5012580;28;20477;-66
2021/08/03 08:13:49;;;;;;;2.33;1.60;;;18.60;99.70;;;;;;5012338;28;20864;-65
2021/08/03 08:16:16;;;;;;;2.17;1.60;;;18.60;99.70;;;;;;5012033;28;20445;-65
2021/08/03 08:18:44;;;;;;;4.00;1.80;;;18.50;99.70;;;;;;5026923;28;20449;-66
2021/08/03 08:21:10;;;;;;;2.33;1.57;;;18.50;99.70;;;;;;5030368;28;21021;-65
2021/08/03 08:23:37;;;;;;;2.60;1.40;;;18.50;99.70;;;;;;5031619;28;20554;-65
2021/08/03 08:26:05;;;;;;;3.00;1.40;;;18.50;99.70;;;;;;5031827;28;20447;-66
2021/08/03 08:28:31;;;;;;;2.27;1.50;;;18.50;99.70;;;;;;5032088;28;20518;-65
2021/08/03 08:30:58;;;;;;;2.63;1.67;;;18.60;99.70;;;;;;5031495;28;20475;-65
2021/08/03 08:33:25;;;;;;;2.23;1.60;;;18.60;99.70;;;;;;5031920;28;20452;-66
2021/08/03 08:35:53;;;;;;;2.63;1.60;;;18.60;99.70;;;;;;5031474;28;20481;-66
2021/08/03 08:38:19;;;;;;;2.00;1.40;;;18.50;99.70;;;;;;5031983;28;20499;-65
2021/08/03 08:40:46;;;;;;;2.97;1.67;;;18.50;99.70;;;;;;5030519;28;20884;-65
2021/08/03 08:43:14;;;;;;;3.20;1.60;;;18.50;99.70;;;;;;5031165;28;20444;-65
2021/08/03 08:45:42;;;;;;;2.30;1.53;;;18.40;99.70;;;;;;5031368;28;20456;-65
2021/08/03 08:48:10;;;;;;;2.43;1.53;;;18.50;99.70;;;;;;5031897;28;20444;-66
2021/08/03 08:50:38;;;;;;;2.97;1.60;;;18.50;99.70;;;;;;5030763;28;20892;-65
2021/08/03 08:53:06;;;;;;;2.70;1.60;;;18.50;99.70;;;;;;5031523;28;20456;-64
2021/08/03 08:55:33;;;;;;;2.27;1.50;;;18.60;99.70;;;;;;5030929;28;20898;-65
2021/08/03 08:58:00;;;;;;;2.53;1.67;;;18.70;99.70;;;;;;5031272;28;20944;-66
2021/08/03 09:00:28;;;;;;;2.90;1.73;;;18.80;99.70;;;;;;5030718;28;20480;-65
2021/08/03 09:02:56;;;;;;;3.87;1.60;;;18.80;99.70;;;;;;5029872;28;20455;-66
2021/08/03 09:05:29;;;;;;;2.40;1.33;;;18.70;99.70;;;;;;5028246;28;20932;-67
2021/08/03 09:07:58;;;;;;;2.23;1.50;;;18.70;99.70;;;;;;5029413;28;20448;-65
2021/08/03 09:10:36;;;;;;;2.93;1.60;;;18.70;99.70;;;;;;5029426;28;20982;-66
2021/08/03 09:13:05;;;;;;;2.57;1.60;;;18.70;99.70;;;;;;5029342;28;20456;-65
2021/08/03 09:15:35;;;;;;;2.60;1.70;;;18.80;99.70;;;;;;5028594;28;20566;-67
2021/08/03 09:18:11;;;;;;;2.07;1.60;;;18.80;99.70;;;;;;5029766;28;20456;-65
2021/08/03 09:20:38;;;;;;;2.67;1.60;;;18.90;99.70;;;;;;5028929;28;20491;-66
2021/08/03 09:23:05;;;;;;;2.80;1.63;;;18.90;99.70;;;;;;5029153;28;20464;-65
2021/08/03 09:25:33;;;;;;;1.90;1.40;;;18.80;99.70;;;;;;5030963;28;20463;-65
2021/08/03 09:28:03;;;;;;;2.60;1.47;;;19.00;99.70;;;;;;5030337;28;20452;-65
2021/08/03 09:30:32;;;;;;;2.30;1.50;;;19.00;99.70;;;;;;5030547;28;20472;-65
2021/08/03 09:32:59;;;;;;;4.80;1.80;;;19.00;99.70;;;;;;5030550;28;20461;-65
2021/08/03 09:35:27;;;;;;;3.23;1.70;;;19.10;99.70;;;;;;5030428;28;20480;-64
2021/08/03 09:37:56;;;;;;;2.47;1.53;;;19.00;99.70;;;;;;5030582;28;20453;-65
2021/08/03 09:40:24;;;;;;;2.50;1.53;;;18.90;99.70;;;;;;5030894;28;20464;-65
2021/08/03 09:43:04;;;;;;;2.53;1.60;;;18.70;99.70;;;;;;5030416;28;20451;-65
2021/08/03 09:45:32;;;;;;;1.90;1.47;;;18.60;99.70;;;;;;5030524;28;20444;-65
2021/08/03 09:48:11;;;;;;;3.33;1.40;;;18.60;99.70;;;;;;5030621;28;20514;-64
2021/08/03 09:50:59;;;;;;;2.63;1.90;;;18.50;99.70;;;;;;5030527;28;20468;-65
2021/08/03 09:53:47;;;;;;;3.03;1.90;;;18.50;99.70;;;;;;5030410;28;20813;-65
2021/08/03 09:56:17;;;;;;;2.30;1.50;;;18.40;99.70;;;;;;5030361;28;20925;-65
2021/08/03 09:58:59;;;;;;;2.47;1.60;;;18.30;99.70;;;;;;5030463;28;20452;-65
2021/08/03 10:01:28;;;;;;;2.27;1.60;;;17.90;99.70;;;;;;5030513;28;20487;-65
2021/08/03 10:03:57;;;;;;;2.50;1.50;;;17.80;99.70;;;;;;5030278;28;20448;-66
2021/08/03 10:06:23;;;;;;;2.30;1.50;;;17.60;99.70;;;;;;5030624;28;20494;-66
2021/08/03 10:08:52;;;;;;;5.60;1.57;;;17.50;99.70;;;;;;5030439;28;20447;-65
2021/08/03 10:11:19;;;;;;;2.47;1.47;;;17.50;99.70;;;;;;5030200;28;20555;-65
2021/08/03 10:13:47;;;;;;;2.40;1.60;;;17.30;99.70;;;;;;5030011;28;20457;-66
2021/08/03 10:16:16;;;;;;;2.00;1.50;;;17.30;99.70;;;;;;5029808;28;20864;-65
2021/08/03 10:18:45;;;;;;;2.40;1.43;;;17.20;99.70;;;;;;5029936;28;20518;-65
2021/08/03 10:21:21;;;;;;;2.03;1.30;;;17.20;99.70;;;;;;5029992;28;20477;-66
2021/08/03 10:23:48;;;;;;;1.90;1.33;;;17.10;99.70;;;;;;5030010;28;20445;-65
2021/08/03 10:26:16;;;;;;;2.80;1.30;;;17.10;99.70;;;;;;5029762;28;20448;-66
2021/08/03 10:28:43;;;;;;;1.70;1.30;;;17.00;99.70;;;;;;5030176;28;20448;-66
2021/08/03 10:31:40;;;;;;;2.47;1.50;;;17.10;99.70;;;;;;5030049;28;20468;-65
2021/08/03 10:34:08;;;;;;;2.00;1.33;;;17.10;99.70;;;;;;5029854;28;20594;-66
2021/08/03 10:36:47;;;;;;;3.80;1.50;;;17.00;99.70;;;;;;5029954;28;20440;-65
2021/08/03 10:39:15;;;;;;;1.60;1.20;;;17.00;99.70;;;;;;5030143;28;20448;-66
2021/08/03 10:42:06;;;;;;;2.27;1.10;;;17.00;99.70;;;;;;5030748;28;20886;-65
2021/08/03 10:44:44;;;;;;;1.90;1.30;;;16.90;99.70;;;;;;5030270;28;20490;-66
2021/08/03 10:47:44;;;;;;;3.07;1.43;;;16.80;99.70;;;;;;5030703;28;20451;-65
2021/08/03 10:50:13;;;;;;;2.60;1.33;;;16.70;99.70;;;;;;5027327;28;20437;-66
2021/08/03 10:52:53;;;;;;;2.50;1.30;;;16.60;99.70;;;;;;5017519;28;20468;-65
2021/08/03 10:55:30;;;;;;;2.20;1.30;;;16.80;99.70;;;;;;5016659;28;20480;-65
2021/08/03 11:00:42;;;;;;;1.70;1.20;;;17.30;99.70;;;;;;5029261;28;20464;-65
2021/08/03 11:03:42;;;;;;;2.00;1.50;;;17.40;99.70;;;;;;5032756;28;20464;-65
2021/08/03 11:06:31;;;;;;;2.77;1.60;;;17.40;99.70;;;;;;5013018;28;20433;-65
2021/08/03 11:08:58;;;;;;;2.67;1.43;;;17.40;99.70;;;;;;5013822;28;20469;-66
2021/08/03 11:11:27;;;;;;;1.80;1.40;;;17.30;99.70;;;;;;5013639;28;20444;-66
2021/08/03 11:13:55;;;;;;;2.60;1.30;;;17.20;99.70;;;;;;5013751;28;20441;-64
2021/08/03 11:16:48;;;;;;;2.27;1.67;;;16.90;99.70;;;;;;5012929;28;20481;-65
2021/08/03 11:19:34;;;;;;;1.70;1.30;;;16.90;99.70;;;;;;5013569;28;20466;-64
2021/08/03 11:22:03;;;;;;;3.50;1.50;;;17.10;99.70;;;;;;5025414;28;20480;-65
2021/08/03 11:24:42;;;;;;;1.83;1.30;;;17.10;99.70;;;;;;5032818;28;20440;-65
2021/08/03 11:27:10;;;;;;;2.20;1.40;;;17.00;99.70;;;;;;5032848;28;20848;-65
2021/08/03 11:29:38;;;;;;;2.40;1.40;;;17.10;99.70;;;;;;5017177;28;20829;-65
2021/08/03 11:32:07;;;;;;;3.13;1.60;;;17.20;99.70;;;;;;5013396;28;20576;-65
2021/08/03 11:34:37;;;;;;;2.97;1.67;;;17.30;99.70;;;;;;5013105;28;20825;-65
2021/08/03 11:37:10;;;;;;;2.33;1.53;;;17.30;99.70;;;;;;5013224;28;20832;-66
2021/08/03 11:39:39;;;;;;;2.30;1.63;;;17.40;99.70;;;;;;5013159;28;20474;-65
2021/08/03 11:42:07;;;;;;;2.30;1.60;;;17.50;99.70;;;;;;5013239;28;20851;-65
2021/08/03 11:44:34;;;;;;;3.00;1.77;;;17.80;99.70;;;;;;5012794;28;20441;-65
2021/08/03 11:47:03;;;;;;;2.53;1.37;;;18.10;99.70;;;;;;5013065;28;20852;-66
2021/08/03 11:49:33;;;;;;;2.30;1.60;;;18.10;99.70;;;;;;5013030;28;20477;-65
2021/08/03 11:52:16;;;;;;;2.80;1.57;;;18.10;99.70;;;;;;5013095;28;20829;-64
2021/08/03 11:54:44;;;;;;;3.20;1.77;;;18.20;99.70;;;;;;5013007;28;20445;-66
2021/08/03 11:57:26;;;;;;;2.93;1.73;;;18.40;99.70;;;;;;5032780;28;20447;-66
2021/08/03 12:00:01;;;;;;;2.37;1.60;;;18.70;99.70;;;;;;5032607;28;20476;-66
2021/08/03 12:02:28;;;;;;;3.10;1.90;;;18.70;99.70;;;;;;5032555;28;20444;-65
2021/08/03 12:05:16;;;;;;;2.70;2.07;;;18.80;99.70;;;;;;5031598;28;20816;-66
2021/08/03 12:07:50;;;;;;;3.10;1.87;;;18.80;99.70;;;;;;5032494;28;20452;-65
2021/08/03 12:10:17;;;;;;;3.47;2.00;;;18.80;99.70;;;;;;5032627;28;20982;-65
2021/08/03 12:12:46;;;;;;;3.03;1.90;;;19.00;99.70;;;;;;5032675;28;20449;-66
2021/08/03 12:15:14;;;;;;;3.93;1.90;;;19.00;99.70;;;;;;5031618;28;20483;-66
2021/08/03 12:17:42;;;;;;;2.10;1.50;;;18.90;99.70;;;;;;5032523;28;20452;-66
2021/08/03 12:20:27;;;;;;;2.10;1.60;;;18.70;99.70;;;;;;5032173;28;20475;-66
2021/08/03 12:23:07;;;;;;;2.17;1.60;;;18.70;99.70;;;;;;5032431;28;20440;-66
2021/08/03 12:25:45;;;;;;;3.10;2.00;;;18.70;99.70;;;;;;5031781;28;20476;-65
2021/08/03 12:28:12;;;;;;;1.73;1.40;;;18.50;99.70;;;;;;5032077;28;20444;-65
2021/08/03 12:30:40;;;;;;;2.60;1.50;;;18.60;99.70;;;;;;5031866;28;20449;-65
2021/08/03 12:33:07;;;;;;;2.83;1.80;;;18.70;99.70;;;;;;5032015;28;20965;-65
2021/08/03 12:35:39;;;;;;;2.10;1.40;;;18.80;99.70;;;;;;5031535;28;20488;-64
2021/08/03 12:38:15;;;;;;;1.93;1.40;;;18.90;99.70;;;;;;5032152;28;20959;-64
2021/08/03 12:40:42;;;;;;;1.60;1.37;;;18.80;99.70;;;;;;5032026;28;20452;-66
2021/08/03 12:43:09;;;;;;;2.53;1.37;;;18.90;99.70;;;;;;5032060;28;20444;-65
2021/08/03 12:45:38;;;;;;;1.93;1.20;;;18.80;99.70;;;;;;5031721;28;20445;-65
2021/08/03 12:48:08;;;;;;;2.57;1.40;;;18.80;99.70;;;;;;5032221;28;20453;-65
2021/08/03 12:50:48;;;;;;;1.60;1.27;;;18.70;99.70;;;;;;5031859;28;20449;-65
2021/08/03 12:53:25;;;;;;;2.23;1.60;;;18.60;99.70;;;;;;5031809;28;20506;-66
2021/08/03 12:55:54;;;;;;;2.90;1.60;;;18.80;99.70;;;;;;5021155;28;20477;-65
2021/08/03 12:58:35;;;;;;;1.70;1.30;;;18.80;99.70;;;;;;5011727;28;20576;-65
2021/08/03 13:01:22;;;;;;;3.00;1.60;;;18.70;99.70;;;;;;5011710;28;20446;-65
2021/08/03 13:03:51;;;;;;;4.70;1.40;;;18.70;99.70;;;;;;5011595;28;20496;-63
2021/08/03 13:06:18;;;;;;;2.80;1.60;;;18.80;99.70;;;;;;5010563;28;20960;-65
2021/08/03 13:08:46;;;;;;;2.13;1.63;;;19.10;99.70;;;;;;5011725;28;20988;-66
2021/08/03 13:11:14;;;;;;;2.50;1.47;;;19.30;99.70;;;;;;5011656;28;20481;-65
2021/08/03 13:13:40;;;;;;;2.33;1.33;;;19.40;99.70;;;;;;5011574;28;20826;-65
2021/08/03 13:16:07;;;;;;;2.17;1.53;;;19.30;99.70;;;;;;5010853;28;20496;-65
2021/08/03 13:18:37;;;;;;;2.13;1.40;;;19.20;99.70;;;;;;5011990;28;21040;-65
2021/08/03 13:21:04;;;;;;;2.30;1.23;;;19.10;99.70;;;;;;5014207;28;20660;-64
2021/08/03 13:23:31;;;;;;;2.87;1.60;;;19.20;99.70;;;;;;5031050;28;20900;-66
2021/08/03 13:25:59;;;;;;;2.20;1.40;;;19.00;99.70;;;;;;5030719;28;20504;-66
2021/08/03 13:28:26;;;;;;;2.33;1.40;;;18.90;99.70;;;;;;5031292;28;20468;-65
2021/08/03 13:30:53;;;;;;;2.10;1.40;;;18.90;99.70;;;;;;5031158;28;20452;-65
2021/08/03 13:33:19;;;;;;;2.33;1.10;;;19.00;99.70;;;;;;5030747;28;20448;-64
2021/08/03 13:35:46;;;;;;;1.40;1.10;;;18.90;99.70;;;;;;5030925;28;20534;-65
2021/08/03 13:38:12;;;;;;;2.20;1.30;;;18.90;99.70;;;;;;5030666;28;20506;-65
2021/08/03 13:40:41;;;;;;;1.93;1.40;;;18.90;99.70;;;;;;5031060;28;20867;-66
2021/08/03 13:43:09;;;;;;;1.80;1.20;;;19.00;99.70;;;;;;5030565;28;20889;-65
2021/08/03 13:45:36;;;;;;;1.80;1.13;;;18.90;99.70;;;;;;5030449;28;20451;-66
2021/08/03 13:48:04;;;;;;;1.93;1.20;;;18.90;99.70;;;;;;5030640;28;20452;-65
2021/08/03 13:50:32;;;;;;;2.13;1.30;;;19.00;99.70;;;;;;5030659;28;20960;-65
2021/08/03 13:52:59;;;;;;;2.37;1.40;;;19.00;99.70;;;;;;5028284;28;20449;-64
2021/08/03 13:55:26;;;;;;;1.60;1.17;;;19.00;99.70;;;;;;5019459;28;20432;-66
2021/08/03 13:57:52;;;;;;;1.60;1.27;;;18.90;99.70;;;;;;5018215;28;20461;-66
2021/08/03 14:00:20;;;;;;;1.67;1.30;;;18.80;99.70;;;;;;5019414;28;20897;-65
2021/08/03 14:02:47;;;;;;;1.70;1.10;;;18.70;99.70;;;;;;5018024;28;20440;-65
2021/08/03 14:05:14;;;;;;;1.90;1.00;;;18.70;99.70;;;;;;5021500;28;20457;-66
2021/08/03 14:07:40;;;;;;;1.90;1.30;;;18.60;99.70;;;;;;5022579;28;20445;-65
2021/08/03 14:10:08;;;;;;;2.10;1.60;;;18.60;99.70;;;;;;5020374;28;20460;-66
2021/08/03 14:12:35;;;;;;;1.90;1.33;;;18.50;99.70;;;;;;5019150;28;20445;-65
2021/08/03 14:15:02;;;;;;;1.80;1.20;;;18.50;99.70;;;;;;5017450;28;20536;-65
2021/08/03 14:17:30;;;;;;;1.87;1.40;;;18.50;99.70;;;;;;5020136;28;20480;-65
2021/08/03 14:19:57;;;;;;;2.90;1.47;;;18.50;99.70;;;;;;5018703;28;20464;-66
2021/08/03 14:22:23;;;;;;;2.37;1.20;;;18.40;99.70;;;;;;5018282;28;20445;-66
2021/08/03 14:24:50;;;;;;;1.70;1.20;;;18.40;99.70;;;;;;5019499;28;20444;-66
2021/08/03 14:27:17;;;;;;;2.50;1.30;;;18.30;99.70;;;;;;5018736;28;20877;-66
2021/08/03 14:29:45;;;;;;;1.90;1.23;;;18.40;99.70;;;;;;5018082;28;20468;-66
2021/08/03 14:32:13;;;;;;;2.17;1.20;;;18.40;99.70;;;;;;5019666;28;20445;-66
2021/08/03 14:34:41;;;;;;;1.77;1.33;;;18.40;99.70;;;;;;5018583;28;20456;-65
2021/08/03 14:37:08;;;;;;;2.27;1.40;;;18.40;99.70;;;;;;5019678;28;20481;-66
2021/08/03 14:39:34;;;;;;;1.90;1.23;;;18.40;99.70;;;;;;5018400;28;20469;-66
2021/08/03 14:42:01;;;;;;;2.57;1.50;;;18.40;99.70;;;;;;5017880;28;20472;-66
2021/08/03 14:44:28;;;;;;;2.30;1.47;;;18.50;99.70;;;;;;5014203;28;20468;-65
2021/08/03 14:46:55;;;;;;;2.07;1.40;;;18.50;99.70;;;;;;5022100;28;20437;-65
2021/08/03 14:49:22;;;;;;;1.80;1.30;;;18.60;99.70;;;;;;5018896;28;20464;-65
2021/08/03 14:51:50;;;;;;;2.80;1.70;;;18.80;99.70;;;;;;5016631;28;20445;-65
2021/08/03 14:54:17;;;;;;;2.87;1.80;;;18.80;99.70;;;;;;5027145;28;20445;-66
2021/08/03 14:56:45;;;;;;;1.90;1.53;;;18.90;99.70;;;;;;5029644;28;20477;-65
2021/08/03 14:59:12;;;;;;;3.63;1.30;;;19.10;99.70;;;;;;5029485;28;20491;-66
2021/08/03 15:01:40;;;;;;;1.97;1.20;;;19.20;99.70;;;;;;5029309;28;20520;-66
2021/08/03 15:04:07;;;;;;;3.20;1.50;;;19.10;99.70;;;;;;5029539;28;20546;-65
2021/08/03 15:06:33;;;;;;;3.47;1.17;;;19.20;99.70;;;;;;5029260;28;20452;-66
2021/08/03 15:09:02;;;;;;;2.37;1.20;;;19.30;99.70;;;;;;5029720;28;20473;-66
2021/08/03 15:11:29;;;;;;;1.90;1.20;;;19.20;99.70;;;;;;5029205;28;20544;-66
2021/08/03 15:13:55;;;;;;;2.10;1.37;;;19.30;99.70;;;;;;5029302;28;20815;-66
2021/08/03 15:16:23;;;;;;;1.80;1.10;;;19.20;99.70;;;;;;5028694;28;20480;-67
2021/08/03 15:18:49;;;;;;;2.07;1.20;;;19.10;99.70;;;;;;5020116;28;20465;-66
2021/08/03 15:21:16;;;;;;;1.50;1.00;;;19.20;99.70;;;;;;5009823;28;20450;-66
2021/08/03 15:23:43;;;;;;;2.37;1.47;;;19.30;99.70;;;;;;5009480;28;20445;-67
2021/08/03 15:26:11;;;;;;;1.40;1.00;;;19.30;99.70;;;;;;5009526;28;20484;-66
2021/08/03 15:28:37;;;;;;;2.03;1.30;;;19.30;99.70;;;;;;5011590;28;20964;-66
2021/08/03 15:31:05;;;;;;;2.10;1.20;;;19.20;99.70;;;;;;5013477;28;20441;-66
2021/08/03 15:33:32;;;;;;;2.23;1.53;;;19.20;99.70;;;;;;5012904;28;20465;-66
2021/08/03 15:36:00;;;;;;;1.60;1.27;;;19.20;99.70;;;;;;5012833;28;20453;-66
2021/08/03 15:38:27;;;;;;;1.70;1.10;;;19.10;99.70;;;;;;5013138;28;20461;-66
2021/08/03 15:40:54;;;;;;;2.50;1.37;;;19.10;99.70;;;;;;5013042;28;20442;-66
2021/08/03 15:43:22;;;;;;;2.13;1.33;;;19.10;99.70;;;;;;5013179;28;20511;-66
2021/08/03 15:45:49;;;;;;;1.47;1.17;;;19.20;99.70;;;;;;5012515;28;20544;-66
2021/08/03 15:48:16;;;;;;;1.60;1.10;;;19.20;99.70;;;;;;5012384;28;20456;-66
2021/08/03 15:50:45;;;;;;;1.70;1.30;;;19.10;99.70;;;;;;5012557;28;20449;-67
2021/08/03 15:53:12;;;;;;;1.80;1.10;;;19.10;99.70;;;;;;5023987;28;20447;-66
2021/08/03 15:55:39;;;;;;;1.80;1.30;;;19.10;99.70;;;;;;5032328;28;20447;-66
2021/08/03 15:58:06;;;;;;;4.27;2.53;;;19.10;99.70;;;;;;5032536;28;20473;-66
2021/08/03 16:00:34;;;;;;;2.00;1.40;;;19.00;99.70;;;;;;5026484;28;20445;-66
2021/08/03 16:03:01;;;;;;;5.93;1.53;;;19.00;99.70;;;;;;5021872;28;20911;-66
2021/08/03 16:05:28;;;;;;;1.90;1.23;;;19.00;99.70;;;;;;5021411;28;20835;-66
2021/08/03 16:07:55;;;;;;;1.63;1.20;;;19.00;99.70;;;;;;5020085;28;20465;-66
2021/08/03 16:10:21;;;;;;;2.10;1.40;;;19.00;99.70;;;;;;5022162;28;20468;-65
2021/08/03 16:12:49;;;;;;;1.60;1.20;;;18.90;99.70;;;;;;5022013;28;20971;-66
2021/08/03 16:15:16;;;;;;;1.87;1.30;;;18.90;99.70;;;;;;5019129;28;20445;-64
2021/08/03 16:17:53;;;;;;;2.50;1.30;;;18.90;99.70;;;;;;5021630;28;20485;-66
2021/08/03 16:20:20;;;;;;;2.40;1.33;;;18.90;99.70;;;;;;5020211;28;20461;-66
2021/08/03 16:22:47;;;;;;;3.47;1.50;;;18.90;99.70;;;;;;5020909;28;20484;-66
2021/08/03 16:25:15;;;;;;;2.27;1.50;;;18.90;99.70;;;;;;5021839;28;20446;-64
2021/08/03 16:27:41;;;;;;;2.60;1.30;;;18.90;99.70;;;;;;5020204;28;20759;-65
2021/08/03 16:30:09;;;;;;;2.00;1.30;;;18.80;99.70;;;;;;5020495;28;20470;-66
2021/08/03 16:32:36;;;;;;;2.20;1.30;;;18.90;99.70;;;;;;5021987;28;20449;-65